createdAt,value
2019-03-15T00:02:20.060Z,7.27
2019-03-15T00:04:47.173Z,7.53
2019-03-15T00:07:15.465Z,7.97
2019-03-15T00:09:44.321Z,4.60
2019-03-15T00:12:11.390Z,9.37
2019-03-15T00:14:38.917Z,8.70
2019-03-15T00:17:05.971Z,7.23
2019-03-15T00:19:33.027Z,5.37
2019-03-15T00:22:00.193Z,6.60
2019-03-15T00:24:27.259Z,4.70
2019-03-15T00:26:54.330Z,6.50
2019-03-15T00:29:21.553Z,6.63
2019-03-15T00:31:48.583Z,5.83
2019-03-15T00:34:16.623Z,3.70
2019-03-15T00:36:45.065Z,4.90
2019-03-15T00:39:31.326Z,6.37
2019-03-15T00:41:58.293Z,4.60
2019-03-15T00:44:25.042Z,5.77
2019-03-15T00:46:51.889Z,7.93
2019-03-15T00:49:18.881Z,7.27
2019-03-15T00:51:45.677Z,8.50
2019-03-15T00:54:12.426Z,7.60
2019-03-15T00:56:39.246Z,9.73
2019-03-15T00:59:06.374Z,5.30
2019-03-15T01:01:33.269Z,7.70
2019-03-15T01:04:00.611Z,10.10
2019-03-15T01:06:27.743Z,6.80
2019-03-15T01:08:54.490Z,7.53
2019-03-15T01:11:21.320Z,7.43
2019-03-15T01:13:48.084Z,10.53
2019-03-15T01:16:14.857Z,9.73
2019-03-15T01:18:41.745Z,9.43
2019-03-15T01:21:08.596Z,10.33
2019-03-15T01:23:35.256Z,7.53
2019-03-15T01:26:02.597Z,10.60
2019-03-15T01:28:29.243Z,7.27
2019-03-15T01:30:56.224Z,11.30
2019-03-15T01:33:23.382Z,7.23
2019-03-15T01:35:50.256Z,9.00
2019-03-15T01:38:17.108Z,12.27
2019-03-15T01:40:43.930Z,9.97
2019-03-15T01:43:11.066Z,7.27
2019-03-15T01:45:37.824Z,6.63
2019-03-15T01:48:04.732Z,8.80
2019-03-15T01:50:31.486Z,12.90
2019-03-15T01:52:58.554Z,11.37
2019-03-15T01:55:47.284Z,10.93
2019-03-15T01:58:14.334Z,8.10
2019-03-15T02:00:41.740Z,9.73
2019-03-15T02:03:08.875Z,6.80
2019-03-15T02:05:35.972Z,9.10
2019-03-15T02:08:03.057Z,12.43
2019-03-15T02:10:30.172Z,11.97
2019-03-15T02:12:57.246Z,11.60
2019-03-15T02:15:24.325Z,12.30
2019-03-15T02:17:52.675Z,10.07
2019-03-15T02:21:01.964Z,8.97
2019-03-15T02:23:29.121Z,7.30
2019-03-15T02:25:56.157Z,7.03
2019-03-15T02:28:23.600Z,11.43
2019-03-15T02:30:50.779Z,11.53
2019-03-15T02:33:17.993Z,8.90
2019-03-15T02:35:47.087Z,9.10
2019-03-15T02:38:14.924Z,11.80
2019-03-15T02:40:42.426Z,10.83
2019-03-15T02:43:09.503Z,7.00
2019-03-15T02:45:36.909Z,7.97
2019-03-15T02:48:03.988Z,11.97
2019-03-15T02:50:31.108Z,7.30
2019-03-15T02:52:58.545Z,10.43
2019-03-15T02:55:25.626Z,8.00
2019-03-15T02:57:52.730Z,10.63
2019-03-15T03:00:19.944Z,9.00
2019-03-15T03:02:47.020Z,8.67
2019-03-15T03:05:34.335Z,9.27
2019-03-15T03:08:02.593Z,6.57
2019-03-15T03:10:29.813Z,11.30
2019-03-15T03:12:57.350Z,7.63
2019-03-15T03:15:25.227Z,7.53
2019-03-15T03:17:53.420Z,9.70
2019-03-15T03:20:21.155Z,4.27
2019-03-15T03:22:49.654Z,7.87
2019-03-15T03:25:17.214Z,9.37
2019-03-15T03:27:45.156Z,5.37
2019-03-15T03:30:12.295Z,8.63
2019-03-15T03:32:42.919Z,8.80
2019-03-15T03:35:10.446Z,8.73
2019-03-15T03:37:38.507Z,12.20
2019-03-15T03:40:05.458Z,7.13
2019-03-15T03:42:32.288Z,12.37
2019-03-15T03:44:59.061Z,5.43
2019-03-15T03:47:26.071Z,15.57
2019-03-15T03:49:53.629Z,12.60
2019-03-15T03:52:22.196Z,9.27
2019-03-15T03:54:48.950Z,11.03
2019-03-15T03:57:15.862Z,11.83
2019-03-15T03:59:43.035Z,9.83
2019-03-15T04:02:09.878Z,10.53
2019-03-15T04:04:36.749Z,7.67
2019-03-15T04:07:03.607Z,6.17
2019-03-15T04:09:30.351Z,9.33
2019-03-15T04:11:57.215Z,11.07
2019-03-15T04:14:24.064Z,11.33
2019-03-15T04:16:50.926Z,9.23
2019-03-15T04:19:18.131Z,8.03
2019-03-15T04:21:44.894Z,6.97
2019-03-15T04:24:11.664Z,6.60
2019-03-15T04:26:38.576Z,7.93
2019-03-15T04:29:25.407Z,8.03
2019-03-15T04:31:52.515Z,10.93
2019-03-15T04:34:19.576Z,10.27
2019-03-15T04:36:59.531Z,11.47
2019-03-15T04:39:26.191Z,9.47
2019-03-15T04:41:52.911Z,9.20
2019-03-15T04:44:19.737Z,9.57
2019-03-15T04:46:46.564Z,9.97
2019-03-15T04:49:13.310Z,7.20
2019-03-15T04:51:40.373Z,14.00
2019-03-15T04:54:07.015Z,11.83
2019-03-15T04:56:33.766Z,9.50
2019-03-15T04:59:00.587Z,12.43
2019-03-15T05:01:27.320Z,11.27
2019-03-15T05:03:54.053Z,8.83
2019-03-15T05:06:20.963Z,13.63
2019-03-15T05:08:48.354Z,10.30
2019-03-15T05:11:15.198Z,11.30
2019-03-15T05:13:42.339Z,11.63
2019-03-15T05:16:09.076Z,14.10
2019-03-15T05:18:56.174Z,9.47
2019-03-15T05:21:23.372Z,8.77
2019-03-15T05:23:50.426Z,7.37
2019-03-15T05:26:17.923Z,6.57
2019-03-15T05:28:45.012Z,10.07
2019-03-15T05:31:12.061Z,10.17
2019-03-15T05:33:39.164Z,13.23
2019-03-15T05:36:06.370Z,12.93
2019-03-15T05:38:34.787Z,11.30
2019-03-15T05:41:22.607Z,12.67
2019-03-15T05:43:53.023Z,10.20
2019-03-15T05:46:18.867Z,10.57
2019-03-15T05:48:45.655Z,12.50
2019-03-15T05:51:12.417Z,9.90
2019-03-15T05:53:39.318Z,12.25
2019-03-15T05:56:06.251Z,7.63
2019-03-15T05:58:33.313Z,8.80
2019-03-15T06:01:19.742Z,7.60
2019-03-15T06:03:48.811Z,13.63
2019-03-15T06:06:15.450Z,12.83
2019-03-15T06:08:44.655Z,15.33
2019-03-15T06:11:11.965Z,10.67
2019-03-15T06:13:40.600Z,9.30
2019-03-15T06:16:08.027Z,12.33
2019-03-15T06:18:35.133Z,10.57
2019-03-15T06:21:02.214Z,7.60
2019-03-15T06:23:29.372Z,7.50
2019-03-15T06:25:56.698Z,12.77
2019-03-15T06:28:24.162Z,10.37
2019-03-15T06:30:51.287Z,12.20
2019-03-15T06:33:18.360Z,8.77
2019-03-15T06:35:45.968Z,13.90
2019-03-15T06:38:13.105Z,10.50
2019-03-15T06:40:52.999Z,16.03
2019-03-15T06:43:20.247Z,12.70
2019-03-15T06:45:47.891Z,9.93
2019-03-15T06:48:15.313Z,12.43
2019-03-15T06:50:42.443Z,12.67
2019-03-15T06:53:09.516Z,9.53
2019-03-15T06:55:36.561Z,11.97
2019-03-15T06:58:03.650Z,10.67
2019-03-15T07:00:30.679Z,9.77
2019-03-15T07:02:57.718Z,15.70
2019-03-15T07:05:24.902Z,12.23
2019-03-15T07:07:52.284Z,7.57
2019-03-15T07:10:19.556Z,10.83
2019-03-15T07:16:03.432Z,9.60
2019-03-15T07:18:30.834Z,11.27
2019-03-15T07:20:57.926Z,12.40
2019-03-15T07:23:25.049Z,9.13
2019-03-15T07:25:52.108Z,11.07
2019-03-15T07:28:19.438Z,10.00
2019-03-15T07:30:46.666Z,9.33
2019-03-15T07:33:13.739Z,10.63
2019-03-15T07:35:41.230Z,9.70
2019-03-15T07:38:08.881Z,10.07
2019-03-15T07:40:36.002Z,8.57
2019-03-15T07:43:15.786Z,7.70
2019-03-15T07:45:42.543Z,8.20
2019-03-15T07:48:21.729Z,11.13
2019-03-15T07:50:38.373Z,10.73
2019-03-15T07:53:05.430Z,9.03
2019-03-15T07:55:32.488Z,9.03
2019-03-15T07:58:00.330Z,7.20
2019-03-15T08:00:27.339Z,7.57
2019-03-15T08:02:54.401Z,7.60
2019-03-15T08:05:21.863Z,11.10
2019-03-15T08:07:48.916Z,11.53
2019-03-15T08:10:15.946Z,10.47
2019-03-15T08:12:43.054Z,8.60
2019-03-15T08:15:10.315Z,6.80
2019-03-15T08:17:37.381Z,10.73
2019-03-15T08:20:04.672Z,9.43
2019-03-15T08:22:31.776Z,6.80
2019-03-15T08:24:58.958Z,9.50
2019-03-15T08:27:26.176Z,7.40
2019-03-15T08:29:53.647Z,13.33
2019-03-15T08:32:20.986Z,9.13
2019-03-15T08:34:48.247Z,11.03
2019-03-15T08:37:15.320Z,6.53
2019-03-15T08:39:42.357Z,6.67
2019-03-15T08:42:09.504Z,8.63
2019-03-15T08:44:36.714Z,9.07
2019-03-15T08:47:04.224Z,12.27
2019-03-15T08:49:31.490Z,9.63
2019-03-15T08:52:03.831Z,10.27
2019-03-15T08:54:28.487Z,8.00
2019-03-15T08:56:55.993Z,11.17
2019-03-15T08:59:23.043Z,8.93
2019-03-15T09:01:50.134Z,10.30
2019-03-15T09:04:17.343Z,12.23
2019-03-15T09:06:44.911Z,9.10
2019-03-15T09:09:11.941Z,15.40
2019-03-15T09:11:39.413Z,11.73
2019-03-15T09:14:06.562Z,12.60
2019-03-15T09:16:34.432Z,9.30
2019-03-15T09:19:01.609Z,11.07
2019-03-15T09:21:29.004Z,12.87
2019-03-15T09:23:56.081Z,9.30
2019-03-15T09:26:23.543Z,13.13
2019-03-15T09:28:50.570Z,13.17
2019-03-15T09:31:17.603Z,8.80
2019-03-15T09:33:45.204Z,9.27
2019-03-15T09:36:12.273Z,10.30
2019-03-15T09:38:39.359Z,8.50
2019-03-15T09:41:06.521Z,10.37
2019-03-15T09:43:33.606Z,9.70
2019-03-15T09:46:13.206Z,8.10
2019-03-15T09:48:43.544Z,14.60
2019-03-15T09:51:09.212Z,13.03
2019-03-15T09:53:36.712Z,11.63
2019-03-15T09:56:03.846Z,11.63
2019-03-15T09:58:31.394Z,11.23
2019-03-15T10:00:58.740Z,13.33
2019-03-15T10:03:26.054Z,9.57
2019-03-15T10:05:53.157Z,10.70
2019-03-15T10:08:23.379Z,11.40
2019-03-15T10:10:49.504Z,7.00
2019-03-15T10:13:18.651Z,9.00
2019-03-15T10:15:46.034Z,10.93
2019-03-15T10:18:13.273Z,8.90
2019-03-15T10:20:40.723Z,7.73
2019-03-15T10:23:07.826Z,8.73
2019-03-15T10:25:45.988Z,11.83
2019-03-15T10:28:03.892Z,11.43
2019-03-15T10:30:31.051Z,8.43
2019-03-15T10:32:58.149Z,8.80
2019-03-15T10:35:25.554Z,7.93
2019-03-15T10:37:52.662Z,12.00
2019-03-15T10:40:20.366Z,9.33
2019-03-15T10:42:47.431Z,7.67
2019-03-15T10:45:14.569Z,8.53
2019-03-15T10:47:42.768Z,7.73
2019-03-15T10:50:11.482Z,11.37
2019-03-15T10:52:38.626Z,10.53
2019-03-15T10:55:05.736Z,7.87
2019-03-15T10:57:33.182Z,12.07
2019-03-15T11:00:00.661Z,8.43
2019-03-15T11:02:28.083Z,7.87
2019-03-15T11:05:14.848Z,11.83
2019-03-15T11:07:41.931Z,10.00
2019-03-15T11:10:09.608Z,10.53
2019-03-15T11:12:37.057Z,8.43
2019-03-15T11:15:04.678Z,9.20
2019-03-15T11:17:31.736Z,6.13
2019-03-15T11:19:58.918Z,7.50
2019-03-15T11:22:25.949Z,5.83
2019-03-15T11:24:52.995Z,9.37
2019-03-15T11:27:20.795Z,9.43
2019-03-15T11:29:47.925Z,10.10
2019-03-15T11:32:14.970Z,10.77
2019-03-15T11:34:42.173Z,8.10
2019-03-15T11:37:09.241Z,12.00
2019-03-15T11:39:43.104Z,9.50
2019-03-15T11:42:10.307Z,7.97
2019-03-15T11:44:37.395Z,9.20
2019-03-15T11:47:04.651Z,7.60
2019-03-15T11:49:32.037Z,8.23
2019-03-15T11:52:00.851Z,11.43
2019-03-15T11:54:27.977Z,12.20
2019-03-15T11:56:55.350Z,11.00
2019-03-15T11:59:22.426Z,10.27
2019-03-15T12:02:10.756Z,8.77
2019-03-15T12:04:38.353Z,7.77
2019-03-15T12:07:06.239Z,6.83
2019-03-15T12:09:34.181Z,9.50
2019-03-15T12:12:01.236Z,7.93
2019-03-15T12:14:40.467Z,8.80
2019-03-15T12:16:57.916Z,9.93
2019-03-15T12:19:25.545Z,7.23
2019-03-15T12:22:05.286Z,9.93
2019-03-15T12:24:21.704Z,8.87
2019-03-15T12:26:48.964Z,9.90
2019-03-15T12:29:35.594Z,9.70
2019-03-15T12:32:02.997Z,6.73
2019-03-15T12:34:30.072Z,7.57
2019-03-15T12:36:57.302Z,5.63
2019-03-15T12:39:25.246Z,6.77
2019-03-15T12:41:52.703Z,6.03
2019-03-15T12:44:20.830Z,6.97
2019-03-15T12:46:48.094Z,8.97
2019-03-15T12:49:15.171Z,7.00
2019-03-15T12:51:42.435Z,8.47
2019-03-15T12:54:09.530Z,6.87
2019-03-15T12:56:36.651Z,7.50
2019-03-15T12:59:23.765Z,6.43
2019-03-15T13:01:50.863Z,6.00
2019-03-15T13:04:18.010Z,6.40
2019-03-15T13:06:45.710Z,6.60
2019-03-15T13:09:32.645Z,4.90
2019-03-15T13:11:59.494Z,7.30
2019-03-15T13:14:26.833Z,7.93
2019-03-15T13:16:53.949Z,5.87
2019-03-15T13:19:20.990Z,4.47
2019-03-15T13:21:48.604Z,4.23
2019-03-15T13:24:16.372Z,3.60
2019-03-15T13:26:44.820Z,6.00
2019-03-15T13:29:12.283Z,6.03
2019-03-15T13:31:59.167Z,4.93
2019-03-15T13:34:27.887Z,3.07
2019-03-15T13:36:56.929Z,4.80
2019-03-15T13:39:25.701Z,3.53
2019-03-15T13:41:54.870Z,4.47
2019-03-15T13:44:22.265Z,4.37
2019-03-15T13:46:52.040Z,4.83
2019-03-15T13:49:19.255Z,3.47
2019-03-15T13:51:47.984Z,3.83
2019-03-15T13:54:16.161Z,7.67
2019-03-15T13:56:44.959Z,2.80
2019-03-15T13:59:14.006Z,3.87
2019-03-15T14:01:43.343Z,5.63
2019-03-15T14:04:11.910Z,4.83
2019-03-15T14:06:40.883Z,6.00
2019-03-15T14:09:08.880Z,6.43
2019-03-15T14:11:36.382Z,6.60
2019-03-15T14:14:04.077Z,7.43
2019-03-15T14:16:31.357Z,7.13
2019-03-15T14:18:58.865Z,6.47
2019-03-15T14:21:26.555Z,5.87
2019-03-15T14:23:54.151Z,7.03
2019-03-15T14:26:21.214Z,6.00
2019-03-15T14:28:48.775Z,8.03
2019-03-15T14:31:15.943Z,9.47
2019-03-15T14:33:42.992Z,8.10
2019-03-15T14:36:10.022Z,9.20
2019-03-15T14:38:37.458Z,8.03
2019-03-15T14:41:07.448Z,7.60
2019-03-15T14:43:33.705Z,11.30
2019-03-15T14:46:01.198Z,8.53
2019-03-15T14:48:28.358Z,9.23
2019-03-15T14:50:55.939Z,9.50
2019-03-15T14:53:42.493Z,8.40
2019-03-15T14:56:09.574Z,12.97
2019-03-15T14:58:36.977Z,10.77
2019-03-15T15:01:04.316Z,8.80
2019-03-15T15:03:31.494Z,10.63
2019-03-15T15:05:58.507Z,9.10
2019-03-15T15:08:26.044Z,8.33
2019-03-15T15:10:53.085Z,7.63
2019-03-15T15:13:20.133Z,9.77
2019-03-15T15:15:47.318Z,11.33
2019-03-15T15:18:14.366Z,8.27
2019-03-15T15:20:41.428Z,8.47
2019-03-15T15:23:08.534Z,7.73
2019-03-15T15:25:35.608Z,8.60
2019-03-15T15:28:04.714Z,10.27
2019-03-15T15:30:31.776Z,7.80
2019-03-15T15:32:58.848Z,7.47
2019-03-15T15:35:25.960Z,8.93
2019-03-15T15:37:53.048Z,7.50
2019-03-15T15:40:20.566Z,6.77
2019-03-15T15:43:07.191Z,6.47
2019-03-15T15:45:34.278Z,7.00
2019-03-15T15:48:01.322Z,6.00
2019-03-15T15:50:28.739Z,5.87
2019-03-15T15:52:55.815Z,5.97
2019-03-15T15:55:22.868Z,5.33
2019-03-15T15:58:02.909Z,4.87
2019-03-15T16:00:29.943Z,4.10
2019-03-15T16:02:57.065Z,4.90
2019-03-15T16:05:25.280Z,6.70
2019-03-15T16:07:52.373Z,4.00
2019-03-15T16:10:19.415Z,3.90
2019-03-15T16:12:47.112Z,4.70
2019-03-15T16:15:14.402Z,4.37
2019-03-15T16:17:45.221Z,3.47
2019-03-15T16:20:11.985Z,4.13
2019-03-15T16:22:39.617Z,6.30
2019-03-15T16:25:07.335Z,6.13
2019-03-15T16:27:34.842Z,3.17
2019-03-15T16:30:03.623Z,3.60
2019-03-15T16:32:32.343Z,3.10
2019-03-15T16:35:20.572Z,4.13
2019-03-15T16:37:49.564Z,3.27
2019-03-15T16:40:17.875Z,3.33
2019-03-15T16:42:45.711Z,3.27
2019-03-15T16:45:15.332Z,4.23
2019-03-15T16:47:43.395Z,5.90
2019-03-15T16:50:11.504Z,3.43
2019-03-15T16:52:38.691Z,3.37
2019-03-15T16:55:06.281Z,3.30
2019-03-15T16:57:33.161Z,4.13
2019-03-15T17:00:13.266Z,3.30
2019-03-15T17:02:40.607Z,3.87
2019-03-15T17:05:27.356Z,4.07
2019-03-15T17:08:14.182Z,3.70
2019-03-15T17:10:41.751Z,5.33
2019-03-15T17:16:02.759Z,5.50
2019-03-15T17:18:30.047Z,5.67
2019-03-15T17:20:57.483Z,4.47
2019-03-15T17:23:24.565Z,3.13
2019-03-15T17:25:51.658Z,4.37
2019-03-15T17:28:18.901Z,3.47
2019-03-15T17:30:46.258Z,4.57
2019-03-15T17:33:13.409Z,2.33
2019-03-15T17:35:41.134Z,2.90
2019-03-15T17:38:08.373Z,4.57
2019-03-15T17:40:35.953Z,3.87
2019-03-15T17:43:03.715Z,4.57
2019-03-15T17:45:31.410Z,2.17
2019-03-15T17:47:58.454Z,2.23
2019-03-15T17:50:26.187Z,3.00
2019-03-15T17:52:53.647Z,2.57
2019-03-15T17:55:20.906Z,2.00
2019-03-15T17:57:48.077Z,2.63
2019-03-15T18:00:37.017Z,1.83
2019-03-15T18:03:53.138Z,2.43
2019-03-15T18:06:20.193Z,3.63
2019-03-15T18:08:47.267Z,3.27
2019-03-15T18:11:14.429Z,10.13
2019-03-15T18:13:41.473Z,4.53
2019-03-15T18:16:08.524Z,2.80
2019-03-15T18:18:35.712Z,2.23
2019-03-15T18:21:03.163Z,2.50
2019-03-15T18:23:30.278Z,3.93
2019-03-15T18:25:57.761Z,3.73
2019-03-15T18:28:24.837Z,2.93
2019-03-15T18:30:51.989Z,2.60
2019-03-15T18:33:19.148Z,3.07
2019-03-15T18:35:46.668Z,4.07
2019-03-15T18:38:13.775Z,3.10
2019-03-15T18:40:40.999Z,4.27
2019-03-15T18:43:08.118Z,4.30
2019-03-15T18:45:35.759Z,3.20
2019-03-15T18:48:02.962Z,4.87
2019-03-15T18:50:30.153Z,4.00
2019-03-15T18:52:57.403Z,3.63
2019-03-15T18:55:24.696Z,2.97
2019-03-15T18:57:51.765Z,3.63
2019-03-15T19:00:18.879Z,3.27
2019-03-15T19:03:00.148Z,2.93
2019-03-15T19:05:27.342Z,1.93
2019-03-15T19:07:54.455Z,1.67
2019-03-15T19:10:22.231Z,3.97
2019-03-15T19:12:49.324Z,1.87
2019-03-15T19:15:16.459Z,4.10
2019-03-15T19:17:43.679Z,2.07
2019-03-15T19:20:11.069Z,2.93
2019-03-15T19:22:38.149Z,2.07
2019-03-15T19:25:05.780Z,2.77
2019-03-15T19:27:33.249Z,3.07
2019-03-15T19:30:00.397Z,3.77
2019-03-15T19:32:27.695Z,2.50
2019-03-15T19:34:54.839Z,2.83
2019-03-15T19:37:22.290Z,2.17
2019-03-15T19:39:49.707Z,2.70
2019-03-15T19:42:17.365Z,3.53
2019-03-15T19:44:44.539Z,2.70
2019-03-15T19:47:12.253Z,3.10
2019-03-15T19:49:40.242Z,5.33
2019-03-15T19:52:07.973Z,3.13
2019-03-15T19:54:36.590Z,4.53
2019-03-15T19:57:03.978Z,4.33
2019-03-15T19:59:31.147Z,2.03
2019-03-15T20:01:58.842Z,4.40
2019-03-15T20:04:26.064Z,3.53
2019-03-15T20:06:53.401Z,4.37
2019-03-15T20:09:22.130Z,3.77
2019-03-15T20:11:49.286Z,4.63
2019-03-15T20:14:16.899Z,3.33
2019-03-15T20:16:45.541Z,3.57
2019-03-15T20:19:12.637Z,4.87
2019-03-15T20:21:39.780Z,4.03
2019-03-15T20:24:07.723Z,4.23
2019-03-15T20:26:35.523Z,4.60
2019-03-15T20:29:03.203Z,3.63
2019-03-15T20:31:30.909Z,2.63
2019-03-15T20:33:58.994Z,2.77
2019-03-15T20:39:35.579Z,4.27
2019-03-15T20:42:22.947Z,6.50
2019-03-15T20:45:10.607Z,4.33
2019-03-15T20:47:58.545Z,4.20
2019-03-15T20:50:26.550Z,4.67
2019-03-15T20:53:07.600Z,2.50
2019-03-15T20:55:24.153Z,5.63
2019-03-15T20:57:51.242Z,5.33
2019-03-15T21:00:18.349Z,3.23
2019-03-15T21:02:47.828Z,5.00
2019-03-15T21:05:14.959Z,3.63
2019-03-15T21:07:43.826Z,2.50
2019-03-15T21:10:10.794Z,4.40
2019-03-15T21:12:37.627Z,5.60
2019-03-15T21:15:06.170Z,4.27
2019-03-15T21:17:53.377Z,3.57
2019-03-15T21:20:22.561Z,5.33
2019-03-15T21:26:03.084Z,6.13
2019-03-15T21:28:30.616Z,4.93
2019-03-15T21:30:57.972Z,3.53
2019-03-15T21:33:25.522Z,7.63
2019-03-15T21:35:52.736Z,5.53
2019-03-15T21:38:19.793Z,5.20
2019-03-15T21:40:46.940Z,6.27
2019-03-15T21:43:14.080Z,7.73
2019-03-15T21:45:41.187Z,5.27
2019-03-15T21:48:08.248Z,6.33
2019-03-15T21:50:35.378Z,7.10
2019-03-15T21:53:02.471Z,7.13
2019-03-15T21:55:29.564Z,5.57
2019-03-15T21:57:56.780Z,7.77
2019-03-15T22:00:24.212Z,5.03
2019-03-15T22:02:51.296Z,4.60
2019-03-15T22:05:18.607Z,5.83
2019-03-15T22:07:45.744Z,7.63
2019-03-15T22:10:12.842Z,6.17
2019-03-15T22:12:39.982Z,4.53
2019-03-15T22:15:07.590Z,7.27
2019-03-15T22:17:36.238Z,4.70
2019-03-15T22:20:04.389Z,5.73
2019-03-15T22:22:31.464Z,7.20
2019-03-15T22:24:58.723Z,6.87
2019-03-15T22:27:26.338Z,9.53
2019-03-15T22:29:54.014Z,6.00
2019-03-15T22:32:22.441Z,6.23
2019-03-15T22:34:49.569Z,9.13
2019-03-15T22:37:17.330Z,6.63
2019-03-15T22:39:44.649Z,9.97
2019-03-15T22:42:11.787Z,5.83
2019-03-15T22:44:38.937Z,7.83
2019-03-15T22:47:06.323Z,5.83
2019-03-15T22:49:33.419Z,6.97
2019-03-15T22:52:00.527Z,7.00
2019-03-15T22:54:27.610Z,8.47
2019-03-15T22:56:54.853Z,6.50
2019-03-15T22:59:22.046Z,6.33
2019-03-15T23:01:49.085Z,7.60
2019-03-15T23:04:16.710Z,8.13
2019-03-15T23:06:43.940Z,6.07
2019-03-15T23:09:11.104Z,6.67
2019-03-15T23:11:38.702Z,5.27
2019-03-15T23:14:05.863Z,6.77
2019-03-15T23:16:33.323Z,6.83
2019-03-15T23:19:20.487Z,9.57
2019-03-15T23:21:47.807Z,7.93
2019-03-15T23:24:14.885Z,8.10
2019-03-15T23:26:42.294Z,11.77
2019-03-15T23:29:09.637Z,6.60
2019-03-15T23:31:43.532Z,10.30
2019-03-15T23:34:06.085Z,7.33
2019-03-15T23:36:33.350Z,7.10
2019-03-15T23:39:24.328Z,8.03
2019-03-15T23:41:51.435Z,9.33
2019-03-15T23:44:18.192Z,6.67
2019-03-15T23:46:45.086Z,8.63
2019-03-15T23:49:11.813Z,6.20
2019-03-15T23:51:38.560Z,6.70
2019-03-15T23:54:06.755Z,7.80
2019-03-15T23:56:33.506Z,8.63
2019-03-15T23:59:00.246Z,10.47
